Time;durP1;ratioP1;P1;durP2;ratioP2;P2;SDS_P1;SDS_P2;PMS_P1;PMS_P2;Temp;Humidity;BMP_temperature;BMP_pressure;BME280_temperature;BME280_humidity;BME280_pressure;Samples;Min_cycle;Max_cycle;Signal;HPM_P1;HPM_P2
2021/01/24 00:01:57;;;;;;;97.53;50.53;;;4.20;99.90;;;;;;4173308;28;20270;-47
2021/01/24 00:03:58;;;;;;;99.93;47.23;;;4.20;99.90;;;;;;4175238;28;20266;-45
2021/01/24 00:05:59;;;;;;;93.60;48.50;;;4.20;99.90;;;;;;4175106;28;20327;-45
2021/01/24 00:08:00;;;;;;;105.83;50.03;;;4.20;99.90;;;;;;4175180;28;20270;-46
2021/01/24 00:10:04;;;;;;;95.00;47.73;;;4.20;99.90;;;;;;4174813;28;20274;-50
2021/01/24 00:12:07;;;;;;;101.10;48.67;;;4.20;99.90;;;;;;4172988;28;20266;-43
2021/01/24 00:14:08;;;;;;;96.83;50.40;;;4.20;99.90;;;;;;4173736;28;20400;-48
2021/01/24 00:16:09;;;;;;;101.63;49.90;;;4.20;99.90;;;;;;4174583;28;20278;-47
2021/01/24 00:18:10;;;;;;;96.77;49.23;;;4.20;99.90;;;;;;4174623;28;20286;-44
2021/01/24 00:20:12;;;;;;;223.77;115.63;;;4.20;99.90;;;;;;4174183;28;20731;-44
2021/01/24 00:22:13;;;;;;;124.17;66.23;;;4.20;99.90;;;;;;4174365;28;20274;-46
2021/01/24 00:24:14;;;;;;;101.10;53.47;;;4.20;99.90;;;;;;4174520;28;20302;-47
2021/01/24 00:26:16;;;;;;;100.83;51.53;;;4.20;99.90;;;;;;4173872;28;20780;-43
2021/01/24 00:28:21;;;;;;;99.07;49.87;;;4.30;99.90;;;;;;4174453;28;20277;-49
2021/01/24 00:30:22;;;;;;;110.60;52.10;;;4.30;99.90;;;;;;4174416;28;20746;-46
2021/01/24 00:32:24;;;;;;;92.10;47.60;;;4.20;99.90;;;;;;4174550;28;20680;-55
2021/01/24 00:34:25;;;;;;;100.80;49.83;;;4.30;99.90;;;;;;4174970;28;20288;-47
2021/01/24 00:36:26;;;;;;;95.13;47.47;;;4.20;99.90;;;;;;4174321;28;20692;-47
2021/01/24 00:38:27;;;;;;;98.37;49.97;;;4.20;99.90;;;;;;4174535;28;20323;-47
2021/01/24 00:40:28;;;;;;;92.50;48.77;;;4.20;99.90;;;;;;4173776;28;20258;-45
2021/01/24 00:42:30;;;;;;;96.90;51.27;;;4.20;99.90;;;;;;4173789;28;20323;-47
2021/01/24 00:44:31;;;;;;;92.90;49.27;;;4.20;99.90;;;;;;4174368;28;20344;-46
2021/01/24 00:46:33;;;;;;;93.53;48.10;;;4.30;99.90;;;;;;4173868;28;21090;-46
2021/01/24 00:48:35;;;;;;;97.00;48.43;;;4.30;99.90;;;;;;4173863;28;20439;-44
2021/01/24 00:50:36;;;;;;;97.03;48.00;;;4.30;99.90;;;;;;4174215;28;20344;-45
2021/01/24 00:52:38;;;;;;;97.07;46.73;;;4.30;99.90;;;;;;4174219;28;20706;-43
2021/01/24 00:54:39;;;;;;;98.60;47.27;;;4.30;99.90;;;;;;4174643;28;20423;-46
2021/01/24 00:56:40;;;;;;;93.00;46.27;;;4.30;99.90;;;;;;4173695;28;20332;-46
2021/01/24 00:58:42;;;;;;;89.53;47.03;;;4.30;99.90;;;;;;4173849;28;20274;-49
2021/01/24 01:00:43;;;;;;;94.40;45.40;;;4.30;99.90;;;;;;4173639;28;20308;-42
2021/01/24 01:02:44;;;;;;;88.90;44.80;;;4.20;99.90;;;;;;4173686;28;20275;-42
2021/01/24 01:04:45;;;;;;;86.40;44.03;;;4.20;99.90;;;;;;4174186;28;20352;-45
2021/01/24 01:06:47;;;;;;;89.27;44.50;;;4.20;99.90;;;;;;4174347;28;20320;-54
2021/01/24 01:08:48;;;;;;;78.80;39.47;;;4.20;99.90;;;;;;4174038;28;20258;-45
2021/01/24 01:10:49;;;;;;;57.67;27.87;;;4.20;99.90;;;;;;4173605;28;20758;-43
2021/01/24 01:12:50;;;;;;;56.40;28.70;;;4.20;99.90;;;;;;4174180;28;20262;-45
2021/01/24 01:14:51;;;;;;;75.67;38.50;;;4.20;99.90;;;;;;4172906;28;20296;-42
2021/01/24 01:16:53;;;;;;;72.20;36.97;;;4.20;99.90;;;;;;4173827;28;20320;-44
2021/01/24 01:18:54;;;;;;;63.63;29.97;;;4.10;99.90;;;;;;4173117;28;20278;-44
2021/01/24 01:20:56;;;;;;;56.40;30.10;;;4.00;99.90;;;;;;4173018;28;20903;-52
2021/01/24 01:22:57;;;;;;;52.63;25.17;;;3.90;99.90;;;;;;4173147;28;20753;-45
2021/01/24 01:24:58;;;;;;;38.33;20.23;;;3.90;99.90;;;;;;4174356;28;20383;-54
2021/01/24 01:27:00;;;;;;;38.77;19.83;;;3.80;99.90;;;;;;4173655;28;20250;-46
2021/01/24 01:29:01;;;;;;;40.13;22.13;;;3.80;99.90;;;;;;4173312;28;20360;-43
2021/01/24 01:31:02;;;;;;;48.43;22.50;;;3.80;99.90;;;;;;4173490;28;20332;-47
2021/01/24 01:33:04;;;;;;;46.73;23.97;;;3.80;99.90;;;;;;4173053;28;20270;-45
2021/01/24 01:35:06;;;;;;;57.73;26.87;;;3.80;99.90;;;;;;4173897;28;20278;-49
2021/01/24 01:37:07;;;;;;;55.53;26.07;;;3.80;99.90;;;;;;4172896;28;20274;-44
2021/01/24 01:39:08;;;;;;;49.83;25.57;;;3.80;99.90;;;;;;4173523;28;20824;-42
2021/01/24 01:41:10;;;;;;;48.80;25.57;;;3.70;99.90;;;;;;4173327;28;20286;-45
2021/01/24 01:43:11;;;;;;;59.17;28.07;;;3.80;99.90;;;;;;4173142;28;20282;-46
2021/01/24 01:45:14;;;;;;;40.83;21.57;;;3.80;99.90;;;;;;4172978;28;20712;-42
2021/01/24 01:47:26;;;;;;;41.57;21.93;;;3.80;99.90;;;;;;4173181;28;20282;-50
2021/01/24 01:49:27;;;;;;;46.77;23.87;;;3.80;99.90;;;;;;4173169;28;20884;-42
2021/01/24 01:51:29;;;;;;;38.53;20.33;;;3.80;99.90;;;;;;4173208;28;21116;-45
2021/01/24 01:53:30;;;;;;;36.50;18.53;;;3.80;99.90;;;;;;4172775;28;20270;-45
2021/01/24 01:55:31;;;;;;;33.53;18.83;;;3.80;99.90;;;;;;4172834;28;20274;-50
2021/01/24 01:57:33;;;;;;;38.13;20.00;;;3.80;99.90;;;;;;4172965;28;20278;-44
2021/01/24 01:59:34;;;;;;;33.30;17.40;;;3.80;99.90;;;;;;4173172;28;20673;-44
2021/01/24 02:01:49;;;;;;;37.30;17.10;;;3.90;99.90;;;;;;4172782;28;20274;-49
2021/01/24 02:04:31;;;;;;;40.40;18.67;;;3.90;99.90;;;;;;4172824;28;20270;-45
2021/01/24 02:06:44;;;;;;;32.43;16.27;;;3.80;99.90;;;;;;4171074;28;20297;-45
2021/01/24 02:08:51;;;;;;;36.47;17.33;;;3.80;99.90;;;;;;4172857;28;20266;-46
2021/01/24 02:11:07;;;;;;;38.03;18.53;;;3.90;99.90;;;;;;4172754;28;20274;-46
2021/01/24 02:13:48;;;;;;;32.33;16.67;;;3.80;99.90;;;;;;4172753;28;20278;-47
2021/01/24 02:15:50;;;;;;;36.03;17.13;;;3.80;99.90;;;;;;4172490;28;20786;-44
2021/01/24 02:18:02;;;;;;;34.47;17.60;;;3.80;99.90;;;;;;4172843;28;20343;-44
2021/01/24 02:20:14;;;;;;;45.20;23.77;;;3.70;99.90;;;;;;4172493;28;20266;-42
2021/01/24 02:22:18;;;;;;;58.60;27.37;;;3.60;99.90;;;;;;4172851;28;20270;-43
2021/01/24 02:24:24;;;;;;;58.97;29.40;;;3.50;99.90;;;;;;4172217;28;20340;-45
2021/01/24 02:26:47;;;;;;;53.87;28.90;;;3.40;99.90;;;;;;4173190;28;21077;-46
2021/01/24 02:29:14;;;;;;;57.33;28.37;;;3.30;99.90;;;;;;4172447;28;20250;-50
2021/01/24 02:31:16;;;;;;;58.03;28.97;;;3.30;99.90;;;;;;4172966;28;20262;-44
2021/01/24 02:33:21;;;;;;;57.10;29.40;;;3.40;99.90;;;;;;4172211;28;20258;-43
2021/01/24 02:35:27;;;;;;;56.87;27.70;;;3.40;99.90;;;;;;4172223;28;20292;-44
2021/01/24 02:37:29;;;;;;;42.90;23.60;;;3.40;99.90;;;;;;4172363;28;20258;-49
2021/01/24 02:39:32;;;;;;;45.97;23.37;;;3.40;99.90;;;;;;4172799;28;20258;-42
2021/01/24 02:41:34;;;;;;;41.43;20.77;;;3.50;99.90;;;;;;4171855;28;20336;-43
2021/01/24 02:43:37;;;;;;;43.27;23.53;;;3.50;99.90;;;;;;4172694;28;20270;-43
2021/01/24 02:45:44;;;;;;;46.60;23.83;;;3.50;99.90;;;;;;4171748;28;20435;-45
2021/01/24 02:47:46;;;;;;;50.30;23.33;;;3.50;99.90;;;;;;4172131;28;20758;-50
2021/01/24 02:49:49;;;;;;;42.77;22.47;;;3.50;99.90;;;;;;4172482;28;20282;-48
2021/01/24 02:51:52;;;;;;;44.33;22.33;;;3.50;99.90;;;;;;4172173;28;20337;-44
2021/01/24 02:53:54;;;;;;;48.20;23.73;;;3.40;99.90;;;;;;4172436;28;20278;-48
2021/01/24 02:55:55;;;;;;;45.37;23.53;;;3.40;99.90;;;;;;4172449;28;20323;-43
2021/01/24 02:57:57;;;;;;;41.50;20.90;;;3.40;99.90;;;;;;4172709;28;20359;-45
2021/01/24 02:59:58;;;;;;;45.37;22.47;;;3.50;99.90;;;;;;4172597;28;20259;-44
2021/01/24 03:02:00;;;;;;;45.70;22.60;;;3.50;99.90;;;;;;4171335;28;20289;-47
2021/01/24 03:04:02;;;;;;;40.83;23.17;;;3.50;99.90;;;;;;4172324;28;20274;-52
2021/01/24 03:06:04;;;;;;;45.43;23.63;;;3.50;99.90;;;;;;4172426;28;20343;-47
2021/01/24 03:08:05;;;;;;;48.83;23.50;;;3.50;99.90;;;;;;4170502;28;20352;-49
2021/01/24 03:10:08;;;;;;;44.33;23.00;;;3.40;99.90;;;;;;4172141;28;20335;-47
2021/01/24 03:12:10;;;;;;;41.00;22.50;;;3.40;99.90;;;;;;4171931;28;21139;-46
2021/01/24 03:14:25;;;;;;;43.17;22.93;;;3.40;99.90;;;;;;4172539;28;20686;-45
2021/01/24 03:16:29;;;;;;;47.90;23.30;;;3.30;99.90;;;;;;4171934;28;20324;-44
2021/01/24 03:18:35;;;;;;;47.30;23.83;;;3.30;99.90;;;;;;4172249;28;20282;-46
2021/01/24 03:20:41;;;;;;;48.00;24.27;;;3.20;99.90;;;;;;4172376;28;20702;-45
2021/01/24 03:22:44;;;;;;;42.10;22.77;;;3.20;99.90;;;;;;4172201;28;20320;-43
2021/01/24 03:24:48;;;;;;;46.67;22.37;;;3.20;99.90;;;;;;4172289;28;20281;-44
2021/01/24 03:26:50;;;;;;;47.73;23.30;;;3.10;99.90;;;;;;4172548;28;20270;-46
2021/01/24 03:28:52;;;;;;;49.87;25.20;;;3.10;99.90;;;;;;4160223;28;20678;-49
2021/01/24 03:30:53;;;;;;;46.47;22.83;;;3.00;99.90;;;;;;4155439;28;20313;-45
2021/01/24 03:32:55;;;;;;;47.37;23.60;;;3.00;99.90;;;;;;4155542;28;20259;-44
2021/01/24 03:34:56;;;;;;;46.90;22.77;;;3.00;99.90;;;;;;4155856;28;20320;-46
2021/01/24 03:36:58;;;;;;;46.37;23.13;;;3.00;99.90;;;;;;4156365;28;20616;-43
2021/01/24 03:38:59;;;;;;;43.00;24.03;;;3.00;99.90;;;;;;4155250;28;20667;-44
2021/01/24 03:41:01;;;;;;;49.73;25.07;;;3.00;99.90;;;;;;4158714;28;20379;-46
2021/01/24 03:43:02;;;;;;;55.50;28.00;;;3.00;99.90;;;;;;4171543;28;20293;-46
2021/01/24 03:45:06;;;;;;;50.97;26.43;;;3.00;99.90;;;;;;4165469;28;20844;-46
2021/01/24 03:47:07;;;;;;;56.63;27.43;;;2.90;99.90;;;;;;4156431;28;20275;-43
2021/01/24 03:49:08;;;;;;;57.30;28.60;;;2.90;99.90;;;;;;4158259;28;20278;-45
2021/01/24 03:51:09;;;;;;;50.97;26.10;;;2.90;99.90;;;;;;4158595;28;20278;-43
2021/01/24 03:53:10;;;;;;;49.13;26.33;;;2.80;99.90;;;;;;4158481;28;20678;-45
2021/01/24 03:55:12;;;;;;;50.97;25.63;;;2.80;99.90;;;;;;4158366;28;20342;-54
2021/01/24 03:57:13;;;;;;;51.43;27.33;;;2.90;99.90;;;;;;4158494;28;20706;-49
2021/01/24 03:59:14;;;;;;;54.47;25.17;;;2.90;99.90;;;;;;4158514;28;20278;-44
2021/01/24 04:01:16;;;;;;;45.30;23.83;;;2.90;99.90;;;;;;4158970;28;20666;-43
2021/01/24 04:03:17;;;;;;;49.80;24.20;;;3.00;99.90;;;;;;4158162;28;20336;-50
2021/01/24 04:05:18;;;;;;;42.50;20.40;;;3.00;99.90;;;;;;4158496;28;20303;-48
2021/01/24 04:07:19;;;;;;;38.40;20.00;;;3.20;99.90;;;;;;4158079;28;20291;-49
2021/01/24 04:09:21;;;;;;;54.73;26.27;;;3.30;99.90;;;;;;4158488;28;20345;-42
2021/01/24 04:11:24;;;;;;;44.57;22.50;;;3.30;99.90;;;;;;4158089;28;20313;-43
2021/01/24 04:13:25;;;;;;;39.10;18.93;;;3.30;99.90;;;;;;4158190;28;20912;-44
2021/01/24 04:15:27;;;;;;;42.07;22.03;;;3.40;99.90;;;;;;4157790;28;20740;-44
2021/01/24 04:17:28;;;;;;;37.57;18.63;;;3.50;99.90;;;;;;4158845;28;20291;-44
2021/01/24 04:19:29;;;;;;;26.63;14.57;;;3.60;99.90;;;;;;4174383;28;20270;-44
2021/01/24 04:21:31;;;;;;;27.53;14.17;;;3.70;99.90;;;;;;4173775;28;20661;-44
2021/01/24 04:23:32;;;;;;;32.23;15.80;;;3.80;99.90;;;;;;4174728;28;20273;-44
2021/01/24 04:25:33;;;;;;;30.47;16.13;;;3.90;99.90;;;;;;4173862;28;20301;-46
2021/01/24 04:27:34;;;;;;;26.03;15.03;;;3.90;99.90;;;;;;4167411;28;20270;-43
2021/01/24 04:29:35;;;;;;;30.23;15.90;;;4.00;99.90;;;;;;4157314;28;20340;-44
2021/01/24 04:31:37;;;;;;;36.87;19.30;;;4.10;99.90;;;;;;4157886;28;20321;-47
2021/01/24 04:33:38;;;;;;;30.47;16.60;;;4.10;99.90;;;;;;4157650;28;20710;-47
2021/01/24 04:35:39;;;;;;;29.77;17.07;;;4.00;99.90;;;;;;4158091;28;20290;-46
2021/01/24 04:37:40;;;;;;;36.80;18.27;;;4.10;99.90;;;;;;4157939;28;20919;-45
2021/01/24 04:39:41;;;;;;;32.13;17.03;;;4.10;99.90;;;;;;4172454;28;20343;-45
2021/01/24 04:41:47;;;;;;;34.87;17.63;;;4.00;99.90;;;;;;4174266;28;20274;-48
2021/01/24 04:43:49;;;;;;;27.57;15.03;;;3.90;99.90;;;;;;4174453;28;20841;-50
2021/01/24 04:45:50;;;;;;;25.40;13.27;;;3.80;99.90;;;;;;4174172;28;20312;-50
2021/01/24 04:47:52;;;;;;;26.73;14.40;;;3.80;99.90;;;;;;4174111;28;20278;-45
2021/01/24 04:49:53;;;;;;;25.13;14.37;;;3.90;99.90;;;;;;4173805;28;20327;-47
2021/01/24 04:51:55;;;;;;;31.17;15.63;;;3.90;99.90;;;;;;4174216;28;20292;-44
2021/01/24 04:53:57;;;;;;;25.43;14.33;;;3.90;99.90;;;;;;4174412;28;20353;-50
2021/01/24 04:56:00;;;;;;;25.63;14.07;;;4.00;99.90;;;;;;4173628;28;20266;-43
2021/01/24 04:58:02;;;;;;;28.90;14.83;;;4.00;99.90;;;;;;4173333;28;20278;-48
2021/01/24 05:00:05;;;;;;;31.50;15.73;;;4.00;99.90;;;;;;4173038;28;20942;-43
2021/01/24 05:02:11;;;;;;;33.87;15.63;;;4.00;99.90;;;;;;4174115;28;20296;-43
2021/01/24 05:04:12;;;;;;;32.30;16.53;;;4.00;99.90;;;;;;4171930;28;20274;-46
2021/01/24 05:06:13;;;;;;;38.47;17.90;;;4.00;99.90;;;;;;4173926;28;20368;-44
2021/01/24 05:08:16;;;;;;;33.30;18.30;;;3.90;99.90;;;;;;4166080;28;20279;-45
2021/01/24 05:10:29;;;;;;;39.23;18.50;;;3.90;99.90;;;;;;4157376;28;20259;-45
2021/01/24 05:12:30;;;;;;;31.10;17.37;;;3.80;99.90;;;;;;4157264;28;20313;-44
2021/01/24 05:14:31;;;;;;;29.23;17.57;;;3.80;99.90;;;;;;4158037;28;20271;-44
2021/01/24 05:16:33;;;;;;;35.97;18.50;;;3.80;99.90;;;;;;4156801;28;20726;-45
2021/01/24 05:18:35;;;;;;;35.87;19.17;;;3.80;99.90;;;;;;4157329;28;20279;-45
2021/01/24 05:20:36;;;;;;;36.53;19.17;;;3.80;99.90;;;;;;4156994;28;20371;-47
2021/01/24 05:22:40;;;;;;;34.50;18.77;;;3.70;99.90;;;;;;4156962;28;20305;-44
2021/01/24 05:24:42;;;;;;;37.60;19.80;;;3.70;99.90;;;;;;4158192;28;20270;-48
2021/01/24 05:26:49;;;;;;;36.90;18.57;;;3.70;99.90;;;;;;4156033;28;20410;-47
2021/01/24 05:28:50;;;;;;;34.83;18.10;;;3.70;99.90;;;;;;4156399;28;20283;-43
2021/01/24 05:30:51;;;;;;;34.07;18.50;;;3.70;99.90;;;;;;4157011;28;20267;-42
2021/01/24 05:32:53;;;;;;;34.87;19.00;;;3.70;99.90;;;;;;4157088;28;20270;-43
2021/01/24 05:34:54;;;;;;;35.93;18.70;;;3.70;99.90;;;;;;4156384;28;20313;-45
2021/01/24 05:36:56;;;;;;;42.50;19.17;;;3.60;99.90;;;;;;4157567;28;20274;-56
2021/01/24 05:39:02;;;;;;;38.30;19.20;;;3.70;99.90;;;;;;4156518;28;20280;-46
2021/01/24 05:41:06;;;;;;;44.50;18.97;;;3.70;99.90;;;;;;4156524;28;20313;-44
2021/01/24 05:43:07;;;;;;;39.40;20.23;;;3.70;99.90;;;;;;4155641;28;20275;-42
2021/01/24 05:45:17;;;;;;;39.20;21.47;;;3.70;99.90;;;;;;4156455;28;20334;-43
2021/01/24 05:47:18;;;;;;;42.43;21.37;;;3.70;99.90;;;;;;4156389;28;20735;-46
2021/01/24 05:49:43;;;;;;;52.43;23.50;;;3.70;99.90;;;;;;4156555;28;20313;-43
2021/01/24 05:52:04;;;;;;;47.90;23.07;;;3.60;99.90;;;;;;4156164;28;20266;-44
2021/01/24 05:54:05;;;;;;;;;;;3.60;99.90;;;;;;4157093;28;20336;-45
2021/01/24 05:56:11;;;;;;;55.10;23.80;;;3.60;99.90;;;;;;4155918;28;19913;-44
2021/01/24 05:58:20;;;;;;;41.50;22.90;;;3.70;99.90;;;;;;4163084;28;20630;-44
2021/01/24 06:00:22;;;;;;;51.27;22.97;;;3.60;99.90;;;;;;4172731;28;20258;-45
2021/01/24 06:02:26;;;;;;;46.60;25.77;;;3.70;99.90;;;;;;4172659;28;20734;-45
2021/01/24 06:04:27;;;;;;;48.77;26.47;;;3.70;99.90;;;;;;4173191;28;20320;-44
2021/01/24 06:06:29;;;;;;;48.33;23.60;;;3.70;99.90;;;;;;4173747;28;20856;-45
2021/01/24 06:08:30;;;;;;;47.73;23.40;;;3.70;99.90;;;;;;4172889;28;20320;-42
2021/01/24 06:10:32;;;;;;;49.00;24.33;;;3.70;99.90;;;;;;4171068;28;20780;-44
2021/01/24 06:12:36;;;;;;;48.57;24.03;;;3.70;99.90;;;;;;4172482;28;20751;-42
2021/01/24 06:14:41;;;;;;;44.93;23.07;;;3.70;99.90;;;;;;4171095;28;20290;-46
2021/01/24 06:16:49;;;;;;;49.07;26.03;;;3.70;99.90;;;;;;4172887;28;20278;-44
2021/01/24 06:19:04;;;;;;;50.23;27.07;;;3.70;99.90;;;;;;4172000;28;20274;-42
2021/01/24 06:21:08;;;;;;;58.73;28.17;;;3.70;99.90;;;;;;4173000;28;20278;-42
2021/01/24 06:23:22;;;;;;;57.10;28.37;;;3.60;99.90;;;;;;4172706;28;20766;-50
2021/01/24 06:25:31;;;;;;;54.80;28.10;;;3.60;99.90;;;;;;4172871;28;20270;-43
2021/01/24 06:27:37;;;;;;;58.50;28.20;;;3.60;99.90;;;;;;4172182;28;20269;-46
2021/01/24 06:29:41;;;;;;;54.97;27.50;;;3.60;99.90;;;;;;4172324;28;20293;-45
2021/01/24 06:31:50;;;;;;;58.30;29.63;;;3.60;99.90;;;;;;4172478;28;20320;-44
2021/01/24 06:33:52;;;;;;;50.83;27.97;;;3.60;99.90;;;;;;4172610;28;20265;-47
2021/01/24 06:36:01;;;;;;;56.73;27.73;;;3.60;99.90;;;;;;4173003;28;20270;-43
2021/01/24 06:38:02;;;;;;;50.67;27.77;;;3.60;99.90;;;;;;4172119;28;20275;-43
2021/01/24 06:40:04;;;;;;;54.20;28.17;;;3.60;99.90;;;;;;4172480;28;20903;-47
2021/01/24 06:42:05;;;;;;;59.83;28.93;;;3.60;99.90;;;;;;4172350;28;20270;-51
2021/01/24 06:44:32;;;;;;;51.00;28.00;;;3.60;99.90;;;;;;4166554;28;20270;-43
2021/01/24 06:46:35;;;;;;;66.97;31.83;;;3.70;99.90;;;;;;4155253;28;20871;-51
2021/01/24 06:48:44;;;;;;;90.87;45.97;;;3.70;99.90;;;;;;4155444;28;20290;-48
2021/01/24 06:50:47;;;;;;;102.73;53.87;;;3.70;99.90;;;;;;4155580;28;20287;-46
2021/01/24 06:53:17;;;;;;;104.03;53.67;;;3.70;99.90;;;;;;4156802;28;20295;-49
2021/01/24 06:55:27;;;;;;;92.73;49.60;;;3.80;99.90;;;;;;4155991;28;20329;-47
2021/01/24 06:57:31;;;;;;;87.80;46.25;;;3.90;99.90;;;;;;4155904;28;20262;-46
2021/01/24 06:59:32;;;;;;;82.67;42.33;;;3.90;99.90;;;;;;4155986;28;20037;-49
2021/01/24 07:01:36;;;;;;;76.17;39.13;;;4.00;99.90;;;;;;4155440;28;20305;-46
2021/01/24 07:03:37;;;;;;;67.70;35.10;;;4.00;99.90;;;;;;4155816;28;20275;-47
2021/01/24 07:05:38;;;;;;;70.03;34.37;;;4.10;99.90;;;;;;4156809;28;20356;-46
2021/01/24 07:07:47;;;;;;;79.80;36.53;;;4.20;99.90;;;;;;4156364;28;20267;-45
2021/01/24 07:09:48;;;;;;;87.47;38.00;;;4.30;99.90;;;;;;4155932;28;20258;-43
2021/01/24 07:12:01;;;;;;;91.57;39.47;;;4.40;99.90;;;;;;4155661;28;20677;-44
2021/01/24 07:14:02;;;;;;;83.50;38.80;;;4.50;99.90;;;;;;4155695;28;20275;-47
2021/01/24 07:16:07;;;;;;;77.17;36.73;;;4.60;99.90;;;;;;4158681;28;20279;-47
2021/01/24 07:18:08;;;;;;;79.27;37.50;;;4.70;99.90;;;;;;4167779;28;20270;-46
2021/01/24 07:20:09;;;;;;;85.43;36.17;;;4.80;99.90;;;;;;4156871;28;20340;-48
2021/01/24 07:22:12;;;;;;;76.87;35.07;;;4.90;99.90;;;;;;4157924;28;20328;-45
2021/01/24 07:24:13;;;;;;;79.27;35.33;;;5.00;99.90;;;;;;4158240;28;20774;-49
2021/01/24 07:26:15;;;;;;;70.67;34.33;;;5.10;99.90;;;;;;4158517;28;20324;-49
2021/01/24 07:28:16;;;;;;;65.83;32.63;;;5.20;99.90;;;;;;4158831;28;20324;-46
2021/01/24 07:30:24;;;;;;;70.33;33.93;;;5.40;99.90;;;;;;4158777;28;20332;-43
2021/01/24 07:32:28;;;;;;;55.13;28.13;;;5.60;99.90;;;;;;4158541;28;20282;-48
2021/01/24 07:34:31;;;;;;;55.67;30.70;;;5.70;99.90;;;;;;4162042;28;20286;-46
2021/01/24 07:36:32;;;;;;;46.70;25.30;;;5.80;99.90;;;;;;4183662;28;20273;-53
2021/01/24 07:38:34;;;;;;;47.73;25.33;;;5.80;99.90;;;;;;4191585;28;20044;-44
2021/01/24 07:40:35;;;;;;;47.83;25.37;;;5.70;99.90;;;;;;4191222;28;20451;-49
2021/01/24 07:42:36;;;;;;;49.10;26.53;;;5.60;99.90;;;;;;4166553;28;20049;-48
2021/01/24 07:44:39;;;;;;;48.13;26.47;;;5.60;99.90;;;;;;4174485;28;20052;-48
2021/01/24 07:46:40;;;;;;;42.80;25.90;;;5.80;99.90;;;;;;4172207;28;20118;-45
2021/01/24 07:48:42;;;;;;;48.37;27.27;;;5.90;99.90;;;;;;4172161;28;20048;-50
2021/01/24 07:50:43;;;;;;;60.10;30.40;;;6.00;99.90;;;;;;4165556;28;20402;-45
2021/01/24 07:52:44;;;;;;;55.93;30.07;;;6.10;99.90;;;;;;4157726;28;20045;-46
2021/01/24 07:54:46;;;;;;;57.77;32.50;;;6.10;99.90;;;;;;4158230;28;20021;-49
2021/01/24 07:56:48;;;;;;;60.17;32.93;;;6.20;99.90;;;;;;4167312;28;20067;-51
2021/01/24 07:58:50;;;;;;;66.13;35.60;;;6.40;99.90;;;;;;4158695;28;20082;-56
2021/01/24 08:00:51;;;;;;;56.60;33.17;;;6.80;99.90;;;;;;4158177;28;20049;-54
2021/01/24 08:02:53;;;;;;;52.37;29.90;;;7.10;99.90;;;;;;4158320;28;20033;-55
2021/01/24 08:04:55;;;;;;;52.63;29.03;;;7.30;99.90;;;;;;4168352;28;20117;-44
2021/01/24 08:06:57;;;;;;;56.90;30.40;;;7.30;99.90;;;;;;4162924;28;20864;-49
2021/01/24 08:08:58;;;;;;;60.13;32.50;;;7.10;99.90;;;;;;4165028;28;20041;-47
2021/01/24 08:11:00;;;;;;;58.13;32.10;;;6.70;99.90;;;;;;4174244;28;20033;-54
2021/01/24 08:13:03;;;;;;;63.00;32.67;;;6.30;99.90;;;;;;4174427;28;20119;-43
2021/01/24 08:15:05;;;;;;;64.47;34.43;;;6.20;99.90;;;;;;4164346;28;20045;-49
2021/01/24 08:17:11;;;;;;;62.00;34.30;;;6.10;99.90;;;;;;4171630;28;20437;-51
2021/01/24 08:19:20;;;;;;;80.43;37.37;;;6.10;99.90;;;;;;4173806;28;20071;-51
2021/01/24 08:21:21;;;;;;;68.87;37.20;;;6.10;99.90;;;;;;4157878;28;20478;-51
2021/01/24 08:23:24;;;;;;;65.23;35.87;;;6.20;99.90;;;;;;4157668;28;20079;-47
2021/01/24 08:25:25;;;;;;;69.53;37.63;;;6.30;99.90;;;;;;4164647;28;20048;-48
2021/01/24 08:27:27;;;;;;;62.63;35.00;;;6.40;99.90;;;;;;4172345;28;20091;-48
2021/01/24 08:29:34;;;;;;;69.30;36.27;;;6.60;99.90;;;;;;4157693;28;20552;-49
2021/01/24 08:31:36;;;;;;;56.90;31.87;;;6.70;99.90;;;;;;4157515;28;20030;-47
2021/01/24 08:33:37;;;;;;;55.03;29.00;;;6.80;99.90;;;;;;4166390;28;20049;-46
2021/01/24 08:35:38;;;;;;;50.63;27.83;;;6.80;99.90;;;;;;4173416;28;20041;-46
2021/01/24 08:37:40;;;;;;;62.07;32.60;;;6.80;99.90;;;;;;4173682;28;20067;-44
2021/01/24 08:39:41;;;;;;;57.73;30.93;;;6.80;99.90;;;;;;4161610;28;20897;-47
2021/01/24 08:41:42;;;;;;;63.17;33.33;;;6.70;99.90;;;;;;4173736;28;20102;-42
2021/01/24 08:43:44;;;;;;;63.53;32.10;;;6.50;99.90;;;;;;4173078;28;20095;-48
2021/01/24 08:45:45;;;;;;;59.07;33.07;;;6.40;99.90;;;;;;4173905;28;20079;-42
2021/01/24 08:48:02;;;;;;;60.67;30.67;;;6.50;99.90;;;;;;4173641;28;20858;-45
2021/01/24 08:50:09;;;;;;;64.53;32.47;;;6.50;99.90;;;;;;4173177;28;20435;-50
2021/01/24 08:52:20;;;;;;;53.17;30.07;;;6.40;99.90;;;;;;4172188;28;20091;-41
2021/01/24 08:54:32;;;;;;;54.80;29.00;;;6.60;99.90;;;;;;4173489;28;20041;-46
2021/01/24 08:56:33;;;;;;;58.97;31.53;;;6.50;99.90;;;;;;4171998;28;20099;-44
2021/01/24 08:58:35;;;;;;;57.10;30.50;;;6.50;99.90;;;;;;4173163;28;20107;-46
2021/01/24 09:00:36;;;;;;;51.97;30.53;;;6.50;99.90;;;;;;4162137;28;20390;-49
2021/01/24 09:02:38;;;;;;;46.27;25.47;;;6.60;99.90;;;;;;4156816;28;20033;-44
2021/01/24 09:04:47;;;;;;;47.73;25.67;;;6.70;99.90;;;;;;4157008;28;20033;-47
2021/01/24 09:07:13;;;;;;;52.37;29.27;;;6.70;99.90;;;;;;4156899;28;20425;-53
2021/01/24 09:09:26;;;;;;;50.93;28.50;;;6.70;99.90;;;;;;4156044;28;20079;-48
2021/01/24 09:11:27;;;;;;;52.00;30.60;;;6.70;99.90;;;;;;4156658;28;20053;-46
2021/01/24 09:13:28;;;;;;;51.50;28.97;;;6.70;99.90;;;;;;4156718;28;20095;-55
2021/01/24 09:15:32;;;;;;;62.87;33.40;;;6.70;99.90;;;;;;4156044;28;20565;-53
2021/01/24 09:17:33;;;;;;;55.93;31.70;;;6.70;99.90;;;;;;4156613;28;20440;-51
2021/01/24 09:19:37;;;;;;;50.00;29.23;;;6.70;99.90;;;;;;4155568;28;20135;-52
2021/01/24 09:21:38;;;;;;;46.47;26.00;;;6.80;99.90;;;;;;4156112;28;20050;-49
2021/01/24 09:23:39;;;;;;;44.07;25.73;;;7.00;99.90;;;;;;4156222;28;20968;-47
2021/01/24 09:25:40;;;;;;;43.37;24.97;;;7.30;99.90;;;;;;4157113;28;20175;-48
2021/01/24 09:27:42;;;;;;;38.00;22.97;;;7.70;99.90;;;;;;4156273;28;20057;-48
2021/01/24 09:29:43;;;;;;;38.00;21.10;;;8.20;99.90;;;;;;4156005;28;20049;-50
2021/01/24 09:31:44;;;;;;;33.63;19.83;;;8.40;99.90;;;;;;4155851;28;20067;-52
2021/01/24 09:33:45;;;;;;;34.17;20.03;;;8.30;99.90;;;;;;4156613;28;20034;-52
2021/01/24 09:35:47;;;;;;;35.53;19.37;;;8.20;99.90;;;;;;4156278;28;20674;-51
2021/01/24 09:37:48;;;;;;;33.37;19.07;;;8.10;99.90;;;;;;4156196;28;20470;-54
2021/01/24 09:39:50;;;;;;;53.20;28.17;;;7.90;99.90;;;;;;4157279;28;20071;-45
2021/01/24 09:41:51;;;;;;;41.37;23.77;;;7.80;99.90;;;;;;4166996;28;20083;-45
2021/01/24 09:43:52;;;;;;;33.63;20.30;;;7.80;99.90;;;;;;4171028;28;20052;-47
2021/01/24 09:45:54;;;;;;;28.33;18.07;;;7.70;99.90;;;;;;4172078;28;20163;-43
2021/01/24 09:47:56;;;;;;;32.70;19.90;;;7.60;99.90;;;;;;4173151;28;20470;-47
2021/01/24 09:49:58;;;;;;;33.73;19.97;;;7.60;99.90;;;;;;4172791;28;20045;-42
2021/01/24 09:51:59;;;;;;;36.03;20.17;;;7.60;99.90;;;;;;4171236;28;20049;-47
2021/01/24 09:54:00;;;;;;;34.23;21.27;;;7.70;99.90;;;;;;4172440;28;20098;-46
2021/01/24 09:56:01;;;;;;;37.57;21.17;;;7.70;99.90;;;;;;4172497;28;20557;-49
2021/01/24 09:58:03;;;;;;;37.77;19.80;;;7.80;99.90;;;;;;4172848;28;20029;-46
2021/01/24 10:00:06;;;;;;;31.77;18.00;;;7.90;99.90;;;;;;4172545;28;20094;-47
2021/01/24 10:02:07;;;;;;;28.73;17.50;;;8.10;99.90;;;;;;4172288;28;20766;-46
2021/01/24 10:04:09;;;;;;;31.70;17.43;;;8.30;99.90;;;;;;4172999;28;20102;-45
2021/01/24 10:06:10;;;;;;;36.53;17.73;;;8.60;99.90;;;;;;4173021;28;20033;-42
2021/01/24 10:08:12;;;;;;;27.87;17.27;;;8.80;99.90;;;;;;4173084;28;20056;-44
2021/01/24 10:10:13;;;;;;;25.07;16.03;;;8.90;99.90;;;;;;4172512;28;20482;-43
2021/01/24 10:12:14;;;;;;;28.63;15.80;;;9.10;99.90;;;;;;4172226;28;20464;-43
2021/01/24 10:14:16;;;;;;;27.90;16.30;;;9.30;99.90;;;;;;4172465;28;20123;-47
2021/01/24 10:16:17;;;;;;;30.80;17.03;;;9.30;99.90;;;;;;4172487;28;20554;-47
2021/01/24 10:18:20;;;;;;;25.40;15.10;;;9.30;99.90;;;;;;4172495;28;20036;-43
2021/01/24 10:20:21;;;;;;;25.80;15.27;;;9.20;99.90;;;;;;4172501;28;20087;-48
2021/01/24 10:22:22;;;;;;;27.53;15.83;;;9.10;99.90;;;;;;4171198;28;20101;-42
2021/01/24 10:24:23;;;;;;;20.83;14.30;;;9.10;99.90;;;;;;4170063;28;20045;-42
2021/01/24 10:26:24;;;;;;;24.83;13.83;;;9.10;99.90;;;;;;4172359;28;20059;-51
2021/01/24 10:28:26;;;;;;;24.07;14.07;;;9.20;99.90;;;;;;4165592;28;20036;-45
2021/01/24 10:30:27;;;;;;;23.83;13.40;;;9.20;99.90;;;;;;4156270;28;20057;-45
2021/01/24 10:32:28;;;;;;;23.80;14.37;;;9.30;99.90;;;;;;4155460;28;20124;-44
2021/01/24 10:34:30;;;;;;;21.50;13.63;;;9.40;99.90;;;;;;4156427;28;20048;-44